sensor_id;sensor_type;location;lat;lon;timestamp;pressure;altitude;pressure_sealevel;temperature;humidity
70589;BME280;58152;49.202;18.744;2023-12-20T00:01:48;97276.19;;;0.35;83.41
70589;BME280;58152;49.202;18.744;2023-12-20T00:04:14;97271.03;;;0.35;83.11
70589;BME280;58152;49.202;18.744;2023-12-20T00:06:39;97263.31;;;0.33;83.79
70589;BME280;58152;49.202;18.744;2023-12-20T00:09:05;97268.44;;;0.35;83.62
70589;BME280;58152;49.202;18.744;2023-12-20T00:11:30;97255.56;;;0.32;83.39
70589;BME280;58152;49.202;18.744;2023-12-20T00:13:56;97252.97;;;0.33;83.86
70589;BME280;58152;49.202;18.744;2023-12-20T00:16:21;97257.28;;;0.31;82.93
70589;BME280;58152;49.202;18.744;2023-12-20T00:18:46;97246.09;;;0.34;83.27
70589;BME280;58152;49.202;18.744;2023-12-20T00:21:12;97236.56;;;0.40;83.99
70589;BME280;58152;49.202;18.744;2023-12-20T00:23:37;97245.16;;;0.47;83.31
70589;BME280;58152;49.202;18.744;2023-12-20T00:26:03;97234.00;;;0.40;82.91
70589;BME280;58152;49.202;18.744;2023-12-20T00:28:28;97232.31;;;0.38;83.10
70589;BME280;58152;49.202;18.744;2023-12-20T00:30:53;97227.19;;;0.33;83.07
70589;BME280;58152;49.202;18.744;2023-12-20T00:33:19;97233.19;;;0.31;83.13
70589;BME280;58152;49.202;18.744;2023-12-20T00:35:44;97210.84;;;0.30;83.05
70589;BME280;58152;49.202;18.744;2023-12-20T00:38:10;97216.06;;;0.23;82.82
70589;BME280;58152;49.202;18.744;2023-12-20T00:40:36;97200.59;;;0.20;83.40
70589;BME280;58152;49.202;18.744;2023-12-20T00:43:02;97200.59;;;0.20;83.55
70589;BME280;58152;49.202;18.744;2023-12-20T00:45:27;97204.03;;;0.21;82.89
70589;BME280;58152;49.202;18.744;2023-12-20T00:47:53;97193.72;;;0.18;83.63
70589;BME280;58152;49.202;18.744;2023-12-20T00:50:18;97205.75;;;0.17;83.92
70589;BME280;58152;49.202;18.744;2023-12-20T00:52:44;97203.19;;;0.19;83.37
70589;BME280;58152;49.202;18.744;2023-12-20T00:55:09;97209.19;;;0.18;83.52
70589;BME280;58152;49.202;18.744;2023-12-20T00:57:35;97214.34;;;0.18;83.31
70589;BME280;58152;49.202;18.744;2023-12-20T01:00:00;97203.16;;;0.22;83.67
70589;BME280;58152;49.202;18.744;2023-12-20T01:02:26;97196.25;;;0.29;83.50
70589;BME280;58152;49.202;18.744;2023-12-20T01:04:51;97197.06;;;0.34;83.38
70589;BME280;58152;49.202;18.744;2023-12-20T01:07:17;97187.56;;;0.36;83.62
70589;BME280;58152;49.202;18.744;2023-12-20T01:09:42;97194.47;;;0.34;82.52
70589;BME280;58152;49.202;18.744;2023-12-20T01:12:07;97187.63;;;0.30;82.70
70589;BME280;58152;49.202;18.744;2023-12-20T01:14:33;97185.91;;;0.27;83.07
70589;BME280;58152;49.202;18.744;2023-12-20T01:16:59;97187.66;;;0.25;82.47
70589;BME280;58152;49.202;18.744;2023-12-20T01:19:25;97175.63;;;0.21;82.64
70589;BME280;58152;49.202;18.744;2023-12-20T01:21:50;97168.78;;;0.20;82.56
70589;BME280;58152;49.202;18.744;2023-12-20T01:24:15;97167.06;;;0.17;82.77
70589;BME280;58152;49.202;18.744;2023-12-20T01:26:41;97167.06;;;0.17;82.72
70589;BME280;58152;49.202;18.744;2023-12-20T01:29:07;97166.19;;;0.20;83.01
70589;BME280;58152;49.202;18.744;2023-12-20T01:31:32;97161.84;;;0.25;82.72
70589;BME280;58152;49.202;18.744;2023-12-20T01:33:58;97154.06;;;0.30;83.10
70589;BME280;58152;49.202;18.744;2023-12-20T01:36:23;97154.09;;;0.28;82.46
70589;BME280;58152;49.202;18.744;2023-12-20T01:38:48;97135.16;;;0.26;82.29
70589;BME280;58152;49.202;18.744;2023-12-20T01:41:14;97119.75;;;0.23;82.38
70589;BME280;58152;49.202;18.744;2023-12-20T01:43:40;97110.25;;;0.22;82.46
70589;BME280;58152;49.202;18.744;2023-12-20T01:46:05;97118.03;;;0.19;82.80
70589;BME280;58152;49.202;18.744;2023-12-20T01:48:31;97125.78;;;0.19;82.63
70589;BME280;58152;49.202;18.744;2023-12-20T01:51:00;97115.47;;;0.17;82.65
70589;BME280;58152;49.202;18.744;2023-12-20T01:53:27;97109.47;;;0.15;82.60
70589;BME280;58152;49.202;18.744;2023-12-20T01:55:54;97091.44;;;0.14;82.64
70589;BME280;58152;49.202;18.744;2023-12-20T01:58:21;97079.41;;;0.11;82.61
70589;BME280;58152;49.202;18.744;2023-12-20T02:00:48;97077.66;;;0.15;83.36
70589;BME280;58152;49.202;18.744;2023-12-20T02:03:14;97074.97;;;0.22;83.02
70589;BME280;58152;49.202;18.744;2023-12-20T02:05:39;97082.69;;;0.27;82.98
70589;BME280;58152;49.202;18.744;2023-12-20T02:08:06;97074.06;;;0.31;83.53
70589;BME280;58152;49.202;18.744;2023-12-20T02:10:31;97074.91;;;0.33;83.23
70589;BME280;58152;49.202;18.744;2023-12-20T02:12:57;97076.63;;;0.31;82.81
70589;BME280;58152;49.202;18.744;2023-12-20T02:15:23;97067.25;;;0.24;82.90
70589;BME280;58152;49.202;18.744;2023-12-20T02:17:49;97070.72;;;0.23;82.57
70589;BME280;58152;49.202;18.744;2023-12-20T02:20:14;97070.72;;;0.20;82.48
70589;BME280;58152;49.202;18.744;2023-12-20T02:22:40;97065.59;;;0.18;82.82
70589;BME280;58152;49.202;18.744;2023-12-20T02:25:06;97066.44;;;0.17;83.22
70589;BME280;58152;49.202;18.744;2023-12-20T02:27:31;97066.47;;;0.14;82.91
70589;BME280;58152;49.202;18.744;2023-12-20T02:29:57;97057.03;;;0.12;82.88
70589;BME280;58152;49.202;18.744;2023-12-20T02:32:23;97057.91;;;0.11;82.91
70589;BME280;58152;49.202;18.744;2023-12-20T02:34:51;97045.91;;;0.07;82.47
70589;BME280;58152;49.202;18.744;2023-12-20T02:37:17;97051.06;;;0.07;82.74
70589;BME280;58152;49.202;18.744;2023-12-20T02:39:42;97048.50;;;0.05;83.31
70589;BME280;58152;49.202;18.744;2023-12-20T02:42:07;97042.47;;;0.03;82.92
70589;BME280;58152;49.202;18.744;2023-12-20T02:44:33;97049.38;;;0.03;82.96
70589;BME280;58152;49.202;18.744;2023-12-20T02:46:59;97054.53;;;0.03;83.06
70589;BME280;58152;49.202;18.744;2023-12-20T02:49:24;97041.63;;;0.03;83.03
70589;BME280;58152;49.202;18.744;2023-12-20T02:51:50;97039.06;;;0.03;83.15
70589;BME280;58152;49.202;18.744;2023-12-20T02:54:15;97049.38;;;0.03;83.12
70589;BME280;58152;49.202;18.744;2023-12-20T02:56:41;97048.53;;;0.02;82.74
70589;BME280;58152;49.202;18.744;2023-12-20T02:59:06;97049.34;;;0.04;83.37
70589;BME280;58152;49.202;18.744;2023-12-20T03:01:34;97040.75;;;0.04;83.36
70589;BME280;58152;49.202;18.744;2023-12-20T03:04:00;97044.22;;;0.03;83.60
70589;BME280;58152;49.202;18.744;2023-12-20T03:06:25;97040.75;;;0.04;83.57
70589;BME280;58152;49.202;18.744;2023-12-20T03:08:51;97046.78;;;0.04;83.52
70589;BME280;58152;49.202;18.744;2023-12-20T03:11:16;97051.94;;;0.04;83.11
70589;BME280;58152;49.202;18.744;2023-12-20T03:13:42;97044.22;;;0.03;83.20
70589;BME280;58152;49.202;18.744;2023-12-20T03:16:11;97046.78;;;0.04;83.50
70589;BME280;58152;49.202;18.744;2023-12-20T03:18:37;97026.19;;;0.01;83.10
70589;BME280;58152;49.202;18.744;2023-12-20T03:21:04;97021.03;;;0.01;83.32
70589;BME280;58152;49.202;18.744;2023-12-20T03:23:29;97021.91;;;0.00;83.72
70589;BME280;58152;49.202;18.744;2023-12-20T03:25:56;97025.31;;;-0.01;83.26
70589;BME280;58152;49.202;18.744;2023-12-20T03:28:22;97031.34;;;-0.02;83.12
70589;BME280;58152;49.202;18.744;2023-12-20T03:30:48;97018.47;;;-0.04;83.04
70589;BME280;58152;49.202;18.744;2023-12-20T03:33:13;97020.19;;;-0.03;83.47
70589;BME280;58152;49.202;18.744;2023-12-20T03:35:39;97021.06;;;-0.04;83.77
70589;BME280;58152;49.202;18.744;2023-12-20T03:38:04;97026.19;;;-0.02;83.78
70589;BME280;58152;49.202;18.744;2023-12-20T03:40:29;97013.31;;;-0.05;82.93
70589;BME280;58152;49.202;18.744;2023-12-20T03:42:55;97010.75;;;-0.05;83.00
70589;BME280;58152;49.202;18.744;2023-12-20T03:45:20;97016.78;;;-0.06;83.24
70589;BME280;58152;49.202;18.744;2023-12-20T03:47:45;97020.22;;;-0.06;83.90
70589;BME280;58152;49.202;18.744;2023-12-20T03:50:11;97017.63;;;-0.04;83.38
70589;BME280;58152;49.202;18.744;2023-12-20T03:52:36;97008.19;;;-0.07;83.42
70589;BME280;58152;49.202;18.744;2023-12-20T03:55:02;97000.44;;;-0.04;83.53
70589;BME280;58152;49.202;18.744;2023-12-20T03:57:28;96993.56;;;-0.06;83.23
70589;BME280;58152;49.202;18.744;2023-12-20T03:59:53;97002.13;;;-0.03;83.55
70589;BME280;58152;49.202;18.744;2023-12-20T04:02:19;97015.00;;;-0.01;83.16
70589;BME280;58152;49.202;18.744;2023-12-20T04:04:44;97009.00;;;0.00;83.40
70589;BME280;58152;49.202;18.744;2023-12-20T04:07:09;97009.84;;;0.01;83.51
70589;BME280;58152;49.202;18.744;2023-12-20T04:09:35;97012.44;;;0.01;83.44
70589;BME280;58152;49.202;18.744;2023-12-20T04:12:00;97013.28;;;-0.01;83.83
70589;BME280;58152;49.202;18.744;2023-12-20T04:14:26;97017.59;;;-0.01;83.63
70589;BME280;58152;49.202;18.744;2023-12-20T04:16:52;97016.69;;;0.05;83.95
70589;BME280;58152;49.202;18.744;2023-12-20T04:19:17;97015.81;;;0.04;84.14
70589;BME280;58152;49.202;18.744;2023-12-20T04:21:43;97002.06;;;0.05;83.98
70589;BME280;58152;49.202;18.744;2023-12-20T04:24:08;96992.59;;;0.06;83.97
70589;BME280;58152;49.202;18.744;2023-12-20T04:26:33;96953.91;;;0.06;83.92
70589;BME280;58152;49.202;18.744;2023-12-20T04:28:59;96965.09;;;0.03;83.54
70589;BME280;58152;49.202;18.744;2023-12-20T04:31:24;96977.16;;;0.03;83.52
70589;BME280;58152;49.202;18.744;2023-12-20T04:33:50;96982.28;;;0.04;83.85
70589;BME280;58152;49.202;18.744;2023-12-20T04:36:15;96978.00;;;0.03;84.04
70589;BME280;58152;49.202;18.744;2023-12-20T04:38:40;96992.63;;;0.03;84.25
70589;BME280;58152;49.202;18.744;2023-12-20T04:41:06;96995.19;;;0.04;83.53
70589;BME280;58152;49.202;18.744;2023-12-20T04:43:31;96995.19;;;0.04;83.93
70589;BME280;58152;49.202;18.744;2023-12-20T04:45:57;96989.16;;;0.04;83.70
70589;BME280;58152;49.202;18.744;2023-12-20T04:48:22;96977.13;;;0.04;84.07
70589;BME280;58152;49.202;18.744;2023-12-20T04:50:48;96974.56;;;0.03;83.43
70589;BME280;58152;49.202;18.744;2023-12-20T04:53:13;96978.06;;;0.00;83.74
70589;BME280;58152;49.202;18.744;2023-12-20T04:55:38;96975.47;;;-0.02;83.54
70589;BME280;58152;49.202;18.744;2023-12-20T04:58:04;96969.44;;;-0.01;84.20
70589;BME280;58152;49.202;18.744;2023-12-20T05:00:29;96972.03;;;-0.02;83.73
70589;BME280;58152;49.202;18.744;2023-12-20T05:02:55;96972.91;;;-0.03;83.69
70589;BME280;58152;49.202;18.744;2023-12-20T05:05:20;96968.63;;;-0.06;83.62
70589;BME280;58152;49.202;18.744;2023-12-20T05:07:46;96961.78;;;-0.08;83.17
70589;BME280;58152;49.202;18.744;2023-12-20T05:10:11;96952.34;;;-0.11;83.38
70589;BME280;58152;49.202;18.744;2023-12-20T05:12:37;96964.38;;;-0.11;83.74
70589;BME280;58152;49.202;18.744;2023-12-20T05:15:03;96968.69;;;-0.12;83.38
70589;BME280;58152;49.202;18.744;2023-12-20T05:17:29;96953.22;;;-0.12;83.76
70589;BME280;58152;49.202;18.744;2023-12-20T05:19:54;96968.69;;;-0.09;83.42
70589;BME280;58152;49.202;18.744;2023-12-20T05:22:20;96961.78;;;-0.08;83.22
70589;BME280;58152;49.202;18.744;2023-12-20T05:24:45;96970.34;;;-0.06;83.67
70589;BME280;58152;49.202;18.744;2023-12-20T05:27:11;96976.38;;;-0.07;83.49
70589;BME280;58152;49.202;18.744;2023-12-20T05:29:36;96978.94;;;-0.06;83.43
70589;BME280;58152;49.202;18.744;2023-12-20T05:32:02;96998.72;;;-0.06;83.33
70589;BME280;58152;49.202;18.744;2023-12-20T05:34:30;97016.81;;;-0.08;83.45
70589;BME280;58152;49.202;18.744;2023-12-20T05:36:55;97008.22;;;-0.08;83.68
70589;BME280;58152;49.202;18.744;2023-12-20T05:39:21;97008.22;;;-0.08;83.16
70589;BME280;58152;49.202;18.744;2023-12-20T05:41:47;97008.19;;;-0.10;83.16
70589;BME280;58152;49.202;18.744;2023-12-20T05:44:13;97015.94;;;-0.07;83.12
70589;BME280;58152;49.202;18.744;2023-12-20T05:46:38;97009.94;;;-0.09;83.11
70589;BME280;58152;49.202;18.744;2023-12-20T05:49:04;97015.09;;;-0.10;83.24
70589;BME280;58152;49.202;18.744;2023-12-20T05:51:30;97005.66;;;-0.11;83.53
70589;BME280;58152;49.202;18.744;2023-12-20T05:53:55;96996.19;;;-0.14;83.53
70589;BME280;58152;49.202;18.744;2023-12-20T05:56:21;96988.47;;;-0.14;82.97
70589;BME280;58152;49.202;18.744;2023-12-20T05:58:47;96985.88;;;-0.14;83.27
70589;BME280;58152;49.202;18.744;2023-12-20T06:01:14;96984.19;;;-0.13;83.89
70589;BME280;58152;49.202;18.744;2023-12-20T06:03:41;96982.47;;;-0.13;83.32
70589;BME280;58152;49.202;18.744;2023-12-20T06:06:07;96966.13;;;-0.12;83.76
70589;BME280;58152;49.202;18.744;2023-12-20T06:08:36;96924.81;;;-0.10;83.24
70589;BME280;58152;49.202;18.744;2023-12-20T06:11:02;96924.84;;;-0.12;83.00
70589;BME280;58152;49.202;18.744;2023-12-20T06:13:27;96943.75;;;-0.08;83.24
70589;BME280;58152;49.202;18.744;2023-12-20T06:15:54;96928.22;;;-0.05;83.70
70589;BME280;58152;49.202;18.744;2023-12-20T06:18:20;96926.50;;;-0.06;84.00
70589;BME280;58152;49.202;18.744;2023-12-20T06:20:46;96911.00;;;-0.03;83.30
70589;BME280;58152;49.202;18.744;2023-12-20T06:23:11;96909.28;;;-0.03;83.62
70589;BME280;58152;49.202;18.744;2023-12-20T06:25:36;96910.09;;;-0.01;83.32
70589;BME280;58152;49.202;18.744;2023-12-20T06:28:02;96917.84;;;0.01;83.23
70589;BME280;58152;49.202;18.744;2023-12-20T06:30:28;96915.25;;;-0.01;83.76
70589;BME280;58152;49.202;18.744;2023-12-20T06:32:54;96916.16;;;0.00;83.08
70589;BME280;58152;49.202;18.744;2023-12-20T06:35:22;96923.00;;;0.01;83.51
70589;BME280;58152;49.202;18.744;2023-12-20T06:37:48;96906.69;;;-0.01;83.69
70589;BME280;58152;49.202;18.744;2023-12-20T06:40:13;96920.41;;;0.03;83.29
70589;BME280;58152;49.202;18.744;2023-12-20T06:42:39;96919.53;;;0.05;82.94
70589;BME280;58152;49.202;18.744;2023-12-20T06:45:04;96920.38;;;0.06;83.17
70589;BME280;58152;49.202;18.744;2023-12-20T06:47:30;96918.63;;;0.08;83.53
70589;BME280;58152;49.202;18.744;2023-12-20T06:49:55;96928.94;;;0.08;83.05
70589;BME280;58152;49.202;18.744;2023-12-20T06:52:39;96931.53;;;0.09;83.67
70589;BME280;58152;49.202;18.744;2023-12-20T06:55:04;96929.84;;;0.05;83.00
70589;BME280;58152;49.202;18.744;2023-12-20T06:57:30;96942.69;;;0.08;82.83
70589;BME280;58152;49.202;18.744;2023-12-20T06:59:55;96932.38;;;0.08;83.20
70589;BME280;58152;49.202;18.744;2023-12-20T07:02:21;96924.63;;;0.10;83.26
70589;BME280;58152;49.202;18.744;2023-12-20T07:04:47;96936.69;;;0.09;83.38
70589;BME280;58152;49.202;18.744;2023-12-20T07:07:13;96960.78;;;0.07;83.75
70589;BME280;58152;49.202;18.744;2023-12-20T07:09:39;96953.00;;;0.10;83.27
70589;BME280;58152;49.202;18.744;2023-12-20T07:12:06;96949.56;;;0.11;83.59
70589;BME280;58152;49.202;18.744;2023-12-20T07:14:31;96959.03;;;0.10;83.85
70589;BME280;58152;49.202;18.744;2023-12-20T07:16:57;96965.06;;;0.09;83.88
70589;BME280;58152;49.202;18.744;2023-12-20T07:19:22;96959.03;;;0.10;83.80
70589;BME280;58152;49.202;18.744;2023-12-20T07:21:48;96960.69;;;0.13;83.44
70589;BME280;58152;49.202;18.744;2023-12-20T07:24:13;96944.41;;;0.11;83.75
70589;BME280;58152;49.202;18.744;2023-12-20T07:26:38;96952.97;;;0.14;83.85
70589;BME280;58152;49.202;18.744;2023-12-20T07:29:07;96963.25;;;0.16;83.67
70589;BME280;58152;49.202;18.744;2023-12-20T07:31:32;96960.66;;;0.17;83.82
70589;BME280;58152;49.202;18.744;2023-12-20T07:33:58;96953.75;;;0.18;83.63
70589;BME280;58152;49.202;18.744;2023-12-20T07:36:23;96957.19;;;0.20;83.70
70589;BME280;58152;49.202;18.744;2023-12-20T07:38:49;96967.50;;;0.23;83.93
70589;BME280;58152;49.202;18.744;2023-12-20T07:41:14;96959.69;;;0.26;83.72
70589;BME280;58152;49.202;18.744;2023-12-20T07:43:41;96954.53;;;0.28;83.77
70589;BME280;58152;49.202;18.744;2023-12-20T07:46:07;96962.28;;;0.28;84.18
70589;BME280;58152;49.202;18.744;2023-12-20T07:48:36;96975.13;;;0.32;84.09
70589;BME280;58152;49.202;18.744;2023-12-20T07:51:03;96962.22;;;0.34;83.92
70589;BME280;58152;49.202;18.744;2023-12-20T07:53:28;96963.09;;;0.33;83.38
70589;BME280;58152;49.202;18.744;2023-12-20T07:55:55;96963.03;;;0.37;84.10
70589;BME280;58152;49.202;18.744;2023-12-20T07:58:20;96963.00;;;0.39;84.11
70589;BME280;58152;49.202;18.744;2023-12-20T08:00:45;96965.56;;;0.40;84.60
70589;BME280;58152;49.202;18.744;2023-12-20T08:03:11;96971.56;;;0.42;84.18
70589;BME280;58152;49.202;18.744;2023-12-20T08:05:38;96971.56;;;0.42;84.07
70589;BME280;58152;49.202;18.744;2023-12-20T08:08:06;96967.28;;;0.41;84.21
70589;BME280;58152;49.202;18.744;2023-12-20T08:10:31;96976.72;;;0.44;83.89
70589;BME280;58152;49.202;18.744;2023-12-20T08:12:57;96974.09;;;0.45;83.73
70589;BME280;58152;49.202;18.744;2023-12-20T08:15:22;96977.56;;;0.46;83.94
70589;BME280;58152;49.202;18.744;2023-12-20T08:17:48;96966.34;;;0.47;83.69
70589;BME280;58152;49.202;18.744;2023-12-20T08:20:16;96954.28;;;0.50;83.46
70589;BME280;58152;49.202;18.744;2023-12-20T08:22:41;96951.66;;;0.52;83.42
70589;BME280;58152;49.202;18.744;2023-12-20T08:25:10;96965.44;;;0.53;83.42
70589;BME280;58152;49.202;18.744;2023-12-20T08:27:42;96952.53;;;0.53;83.94
70589;BME280;58152;49.202;18.744;2023-12-20T08:30:10;96955.09;;;0.53;83.73
70589;BME280;58152;49.202;18.744;2023-12-20T08:32:36;96929.28;;;0.53;83.61
70589;BME280;58152;49.202;18.744;2023-12-20T08:35:01;96943.00;;;0.56;83.92
70589;BME280;58152;49.202;18.744;2023-12-20T08:37:27;96943.84;;;0.58;83.84
70589;BME280;58152;49.202;18.744;2023-12-20T08:39:53;96949.84;;;0.60;83.77
70589;BME280;58152;49.202;18.744;2023-12-20T08:42:18;96948.13;;;0.61;83.78
70589;BME280;58152;49.202;18.744;2023-12-20T08:44:44;96948.94;;;0.63;83.84
70589;BME280;58152;49.202;18.744;2023-12-20T08:47:10;96950.66;;;0.62;83.59
70589;BME280;58152;49.202;18.744;2023-12-20T08:49:39;96941.16;;;0.66;83.71
70589;BME280;58152;49.202;18.744;2023-12-20T08:52:05;96942.03;;;0.66;83.34
70589;BME280;58152;49.202;18.744;2023-12-20T08:54:30;96950.56;;;0.71;83.61
70589;BME280;58152;49.202;18.744;2023-12-20T08:56:55;96948.00;;;0.68;83.49
70589;BME280;58152;49.202;18.744;2023-12-20T08:59:21;96946.28;;;0.70;83.77
70589;BME280;58152;49.202;18.744;2023-12-20T09:01:46;96938.50;;;0.73;84.12
70589;BME280;58152;49.202;18.744;2023-12-20T09:04:13;96949.69;;;0.74;84.17
70589;BME280;58152;49.202;18.744;2023-12-20T09:06:39;96947.03;;;0.79;83.62
70589;BME280;58152;49.202;18.744;2023-12-20T09:09:04;96941.81;;;0.82;84.12
70589;BME280;58152;49.202;18.744;2023-12-20T09:11:30;96936.59;;;0.85;83.88
70589;BME280;58152;49.202;18.744;2023-12-20T09:13:55;96942.59;;;0.87;84.41
70589;BME280;58152;49.202;18.744;2023-12-20T09:16:20;96935.72;;;0.87;83.95
70589;BME280;58152;49.202;18.744;2023-12-20T09:18:46;96938.28;;;0.89;84.22
70589;BME280;58152;49.202;18.744;2023-12-20T09:21:11;96943.41;;;0.90;83.77
70589;BME280;58152;49.202;18.744;2023-12-20T09:23:37;96934.84;;;0.88;84.21
70589;BME280;58152;49.202;18.744;2023-12-20T09:26:03;96925.38;;;0.89;84.04
70589;BME280;58152;49.202;18.744;2023-12-20T09:28:29;96931.38;;;0.89;83.54
70589;BME280;58152;49.202;18.744;2023-12-20T09:30:54;96928.78;;;0.89;83.99
70589;BME280;58152;49.202;18.744;2023-12-20T09:33:22;96925.38;;;0.89;84.01
70589;BME280;58152;49.202;18.744;2023-12-20T09:35:50;96926.19;;;0.92;84.10
70589;BME280;58152;49.202;18.744;2023-12-20T09:38:15;96922.75;;;0.92;84.64
70589;BME280;58152;49.202;18.744;2023-12-20T09:40:42;96925.28;;;0.95;84.71
70589;BME280;58152;49.202;18.744;2023-12-20T09:43:11;96921.81;;;0.96;84.55
70589;BME280;58152;49.202;18.744;2023-12-20T09:45:39;96927.84;;;0.96;84.12
70589;BME280;58152;49.202;18.744;2023-12-20T09:48:07;96920.09;;;0.96;84.63
70589;BME280;58152;49.202;18.744;2023-12-20T09:50:33;96920.09;;;0.96;83.97
70589;BME280;58152;49.202;18.744;2023-12-20T09:53:00;96913.19;;;0.97;84.56
70589;BME280;58152;49.202;18.744;2023-12-20T09:55:27;96909.78;;;0.96;84.33
70589;BME280;58152;49.202;18.744;2023-12-20T09:57:54;96911.50;;;0.94;84.76
70589;BME280;58152;49.202;18.744;2023-12-20T10:00:20;96899.41;;;0.98;84.72
70589;BME280;58152;49.202;18.744;2023-12-20T10:02:50;96904.53;;;0.99;84.72
70589;BME280;58152;49.202;18.744;2023-12-20T10:05:26;96901.94;;;0.99;84.89
70589;BME280;58152;49.202;18.744;2023-12-20T10:07:52;96891.63;;;0.99;85.40
70589;BME280;58152;49.202;18.744;2023-12-20T10:10:18;96896.78;;;1.01;84.64
70589;BME280;58152;49.202;18.744;2023-12-20T10:13:07;96901.06;;;1.02;84.84
70589;BME280;58152;49.202;18.744;2023-12-20T10:15:34;96906.25;;;1.00;84.81
70589;BME280;58152;49.202;18.744;2023-12-20T10:18:00;96895.91;;;1.02;84.91
70589;BME280;58152;49.202;18.744;2023-12-20T10:20:27;96897.63;;;1.00;84.88
70589;BME280;58152;49.202;18.744;2023-12-20T10:22:54;96891.56;;;1.06;85.32
70589;BME280;58152;49.202;18.744;2023-12-20T10:25:20;96890.66;;;1.05;85.23
70589;BME280;58152;49.202;18.744;2023-12-20T10:27:46;96890.63;;;1.08;85.16
70589;BME280;58152;49.202;18.744;2023-12-20T10:30:13;96891.47;;;1.10;85.23
70589;BME280;58152;49.202;18.744;2023-12-20T10:32:39;96895.72;;;1.13;85.60
70589;BME280;58152;49.202;18.744;2023-12-20T10:35:06;96890.50;;;1.17;86.15
70589;BME280;58152;49.202;18.744;2023-12-20T10:37:35;96891.22;;;1.25;86.36
70589;BME280;58152;49.202;18.744;2023-12-20T10:40:03;96894.50;;;1.35;86.57
70589;BME280;58152;49.202;18.744;2023-12-20T10:42:29;96896.16;;;1.39;86.51
70589;BME280;58152;49.202;18.744;2023-12-20T10:44:56;96888.38;;;1.41;85.86
70589;BME280;58152;49.202;18.744;2023-12-20T10:47:22;96896.13;;;1.41;85.41
70589;BME280;58152;49.202;18.744;2023-12-20T10:49:52;96889.31;;;1.38;85.59
70589;BME280;58152;49.202;18.744;2023-12-20T10:52:17;96887.56;;;1.39;85.96
70589;BME280;58152;49.202;18.744;2023-12-20T10:54:44;96893.56;;;1.41;85.35
70589;BME280;58152;49.202;18.744;2023-12-20T10:57:10;96897.00;;;1.41;86.25
70589;BME280;58152;49.202;18.744;2023-12-20T10:59:37;96894.41;;;1.41;85.90
70589;BME280;58152;49.202;18.744;2023-12-20T11:02:04;96886.66;;;1.41;85.84
70589;BME280;58152;49.202;18.744;2023-12-20T11:04:51;96882.31;;;1.43;86.12
70589;BME280;58152;49.202;18.744;2023-12-20T11:07:43;96879.66;;;1.46;86.12
70589;BME280;58152;49.202;18.744;2023-12-20T11:10:20;96885.69;;;1.48;86.30
70589;BME280;58152;49.202;18.744;2023-12-20T11:13:08;96892.56;;;1.49;86.60
70589;BME280;58152;49.202;18.744;2023-12-20T11:15:36;96890.78;;;1.53;86.51
70589;BME280;58152;49.202;18.744;2023-12-20T11:18:03;96887.25;;;1.56;86.56
70589;BME280;58152;49.202;18.744;2023-12-20T11:20:37;96884.66;;;1.57;86.40
70589;BME280;58152;49.202;18.744;2023-12-20T11:23:03;96875.19;;;1.58;86.41
70589;BME280;58152;49.202;18.744;2023-12-20T11:25:28;96869.97;;;1.61;86.34
70589;BME280;58152;49.202;18.744;2023-12-20T11:28:10;96871.66;;;1.62;86.26
70589;BME280;58152;49.202;18.744;2023-12-20T11:30:45;96894.91;;;1.63;86.35
70589;BME280;58152;49.202;18.744;2023-12-20T11:33:11;96877.69;;;1.62;86.31
70589;BME280;58152;49.202;18.744;2023-12-20T11:35:39;96895.75;;;1.65;86.68
70589;BME280;58152;49.202;18.744;2023-12-20T11:38:07;96884.53;;;1.65;86.20
70589;BME280;58152;49.202;18.744;2023-12-20T11:40:33;96884.53;;;1.65;86.53
70589;BME280;58152;49.202;18.744;2023-12-20T11:43:00;96889.69;;;1.66;86.67
70589;BME280;58152;49.202;18.744;2023-12-20T11:45:25;96880.22;;;1.65;86.34
70589;BME280;58152;49.202;18.744;2023-12-20T11:47:52;96880.16;;;1.68;86.79
70589;BME280;58152;49.202;18.744;2023-12-20T11:50:21;96881.00;;;1.69;86.64
70589;BME280;58152;49.202;18.744;2023-12-20T11:52:48;96879.25;;;1.71;86.57
70589;BME280;58152;49.202;18.744;2023-12-20T11:55:13;96877.47;;;1.74;86.74
70589;BME280;58152;49.202;18.744;2023-12-20T11:57:39;96874.00;;;1.74;86.73
70589;BME280;58152;49.202;18.744;2023-12-20T12:00:05;96877.44;;;1.76;86.67
70589;BME280;58152;49.202;18.744;2023-12-20T12:02:31;96873.91;;;1.80;86.70
70589;BME280;58152;49.202;18.744;2023-12-20T12:04:57;96873.91;;;1.80;86.94
70589;BME280;58152;49.202;18.744;2023-12-20T12:07:24;96865.22;;;1.84;86.75
70589;BME280;58152;49.202;18.744;2023-12-20T12:09:50;96863.41;;;1.88;87.06
70589;BME280;58152;49.202;18.744;2023-12-20T12:12:17;96853.06;;;1.89;86.94
70589;BME280;58152;49.202;18.744;2023-12-20T12:14:45;96838.38;;;1.90;86.96
70589;BME280;58152;49.202;18.744;2023-12-20T12:17:11;96847.00;;;1.90;86.57
70589;BME280;58152;49.202;18.744;2023-12-20T12:19:38;96834.84;;;1.94;86.99
70589;BME280;58152;49.202;18.744;2023-12-20T12:22:07;96836.59;;;1.93;86.96
70589;BME280;58152;49.202;18.744;2023-12-20T12:24:36;96839.97;;;1.95;86.87
70589;BME280;58152;49.202;18.744;2023-12-20T12:27:06;96847.72;;;1.97;86.89
70589;BME280;58152;49.202;18.744;2023-12-20T12:29:32;96839.94;;;1.98;86.68
70589;BME280;58152;49.202;18.744;2023-12-20T12:31:57;96848.50;;;2.00;86.66
70589;BME280;58152;49.202;18.744;2023-12-20T12:34:23;96842.44;;;2.01;86.88
70589;BME280;58152;49.202;18.744;2023-12-20T12:36:48;96842.44;;;2.01;86.87
70589;BME280;58152;49.202;18.744;2023-12-20T12:39:15;96839.81;;;2.04;86.90
70589;BME280;58152;49.202;18.744;2023-12-20T12:41:43;96835.56;;;2.02;86.74
70589;BME280;58152;49.202;18.744;2023-12-20T12:44:08;96838.97;;;2.04;87.33
70589;BME280;58152;49.202;18.744;2023-12-20T12:46:34;96839.75;;;2.08;86.62
70589;BME280;58152;49.202;18.744;2023-12-20T12:48:59;96838.88;;;2.09;86.70
70589;BME280;58152;49.202;18.744;2023-12-20T12:51:25;96850.94;;;2.08;86.78
70589;BME280;58152;49.202;18.744;2023-12-20T12:53:50;96846.59;;;2.10;86.67